sensor_id;sensor_type;location;lat;lon;timestamp;temperature;humidity
52919;DHT22;38793;52.690;6.812;2022-07-05T00:02:16;14.30;99.90
52919;DHT22;38793;52.690;6.812;2022-07-05T00:04:42;14.20;99.90
52919;DHT22;38793;52.690;6.812;2022-07-05T00:07:08;14.20;99.90
52919;DHT22;38793;52.690;6.812;2022-07-05T00:09:53;14.20;99.90
52919;DHT22;38793;52.690;6.812;2022-07-05T00:12:21;14.30;99.90
52919;DHT22;38793;52.690;6.812;2022-07-05T00:14:48;14.20;99.90
52919;DHT22;38793;52.690;6.812;2022-07-05T00:17:14;14.20;99.90
52919;DHT22;38793;52.690;6.812;2022-07-05T00:19:40;14.20;99.90
52919;DHT22;38793;52.690;6.812;2022-07-05T00:22:06;14.20;99.90
52919;DHT22;38793;52.690;6.812;2022-07-05T00:24:31;14.10;99.90
52919;DHT22;38793;52.690;6.812;2022-07-05T00:26:57;14.10;99.90
52919;DHT22;38793;52.690;6.812;2022-07-05T00:29:23;14.00;99.90
52919;DHT22;38793;52.690;6.812;2022-07-05T00:31:49;13.90;99.90
52919;DHT22;38793;52.690;6.812;2022-07-05T00:34:15;13.90;99.90
52919;DHT22;38793;52.690;6.812;2022-07-05T00:36:40;13.80;99.90
52919;DHT22;38793;52.690;6.812;2022-07-05T00:39:07;13.80;99.90
52919;DHT22;38793;52.690;6.812;2022-07-05T00:41:33;13.70;99.90
52919;DHT22;38793;52.690;6.812;2022-07-05T00:43:59;13.70;99.90
52919;DHT22;38793;52.690;6.812;2022-07-05T00:46:26;13.70;99.90
52919;DHT22;38793;52.690;6.812;2022-07-05T00:48:51;13.70;99.90
52919;DHT22;38793;52.690;6.812;2022-07-05T00:51:18;13.70;99.90
52919;DHT22;38793;52.690;6.812;2022-07-05T00:53:44;13.70;99.90
52919;DHT22;38793;52.690;6.812;2022-07-05T00:56:11;13.70;99.90
52919;DHT22;38793;52.690;6.812;2022-07-05T00:58:36;13.60;99.90
52919;DHT22;38793;52.690;6.812;2022-07-05T01:01:03;13.60;99.90
52919;DHT22;38793;52.690;6.812;2022-07-05T01:03:30;13.50;99.90
52919;DHT22;38793;52.690;6.812;2022-07-05T01:05:55;13.40;99.90
52919;DHT22;38793;52.690;6.812;2022-07-05T01:08:22;13.40;99.90
52919;DHT22;38793;52.690;6.812;2022-07-05T01:10:50;13.40;99.90
52919;DHT22;38793;52.690;6.812;2022-07-05T01:13:16;13.40;99.90
52919;DHT22;38793;52.690;6.812;2022-07-05T01:15:42;13.40;99.90
52919;DHT22;38793;52.690;6.812;2022-07-05T01:18:08;13.30;99.90
52919;DHT22;38793;52.690;6.812;2022-07-05T01:20:35;13.30;99.90
52919;DHT22;38793;52.690;6.812;2022-07-05T01:23:01;13.20;99.90
52919;DHT22;38793;52.690;6.812;2022-07-05T01:25:29;13.20;99.90
52919;DHT22;38793;52.690;6.812;2022-07-05T01:27:55;13.20;99.90
52919;DHT22;38793;52.690;6.812;2022-07-05T01:30:22;13.20;99.90
52919;DHT22;38793;52.690;6.812;2022-07-05T01:32:48;13.10;99.90
52919;DHT22;38793;52.690;6.812;2022-07-05T01:35:15;13.10;99.90
52919;DHT22;38793;52.690;6.812;2022-07-05T01:37:47;13.10;99.90
52919;DHT22;38793;52.690;6.812;2022-07-05T01:40:13;13.10;99.90
52919;DHT22;38793;52.690;6.812;2022-07-05T01:42:38;13.10;99.90
52919;DHT22;38793;52.690;6.812;2022-07-05T01:45:04;13.10;99.90
52919;DHT22;38793;52.690;6.812;2022-07-05T01:47:32;13.10;99.90
52919;DHT22;38793;52.690;6.812;2022-07-05T01:50:02;13.00;99.90
52919;DHT22;38793;52.690;6.812;2022-07-05T01:52:29;13.00;99.90
52919;DHT22;38793;52.690;6.812;2022-07-05T01:54:58;12.90;99.90
52919;DHT22;38793;52.690;6.812;2022-07-05T01:57:23;12.90;99.90
52919;DHT22;38793;52.690;6.812;2022-07-05T01:59:49;12.90;99.90
52919;DHT22;38793;52.690;6.812;2022-07-05T02:02:15;12.90;99.90
52919;DHT22;38793;52.690;6.812;2022-07-05T02:04:41;12.90;99.90
52919;DHT22;38793;52.690;6.812;2022-07-05T02:07:07;12.90;99.90
52919;DHT22;38793;52.690;6.812;2022-07-05T02:09:33;12.90;99.90
52919;DHT22;38793;52.690;6.812;2022-07-05T02:11:59;12.90;99.90
52919;DHT22;38793;52.690;6.812;2022-07-05T02:14:25;12.80;99.90
52919;DHT22;38793;52.690;6.812;2022-07-05T02:16:51;12.80;99.90
52919;DHT22;38793;52.690;6.812;2022-07-05T02:19:16;12.70;99.90
52919;DHT22;38793;52.690;6.812;2022-07-05T02:21:42;12.70;99.90
52919;DHT22;38793;52.690;6.812;2022-07-05T02:24:08;12.60;99.90
52919;DHT22;38793;52.690;6.812;2022-07-05T02:26:33;12.60;99.90
52919;DHT22;38793;52.690;6.812;2022-07-05T02:29:00;12.60;99.90
52919;DHT22;38793;52.690;6.812;2022-07-05T02:31:26;12.60;99.90
52919;DHT22;38793;52.690;6.812;2022-07-05T02:33:52;12.60;99.90
52919;DHT22;38793;52.690;6.812;2022-07-05T02:36:17;12.60;99.90
52919;DHT22;38793;52.690;6.812;2022-07-05T02:38:43;12.60;99.90
52919;DHT22;38793;52.690;6.812;2022-07-05T02:41:10;12.50;99.90
52919;DHT22;38793;52.690;6.812;2022-07-05T02:43:36;12.50;99.90
52919;DHT22;38793;52.690;6.812;2022-07-05T02:46:03;12.50;99.90
52919;DHT22;38793;52.690;6.812;2022-07-05T02:48:28;12.50;99.90
52919;DHT22;38793;52.690;6.812;2022-07-05T02:50:54;12.50;99.90
52919;DHT22;38793;52.690;6.812;2022-07-05T02:53:20;12.50;99.90
52919;DHT22;38793;52.690;6.812;2022-07-05T02:55:45;12.50;99.90
52919;DHT22;38793;52.690;6.812;2022-07-05T02:58:11;12.40;99.90
52919;DHT22;38793;52.690;6.812;2022-07-05T03:00:36;12.30;99.90
52919;DHT22;38793;52.690;6.812;2022-07-05T03:03:02;12.30;99.90
52919;DHT22;38793;52.690;6.812;2022-07-05T03:05:28;12.30;99.90
52919;DHT22;38793;52.690;6.812;2022-07-05T03:07:54;12.40;99.90
52919;DHT22;38793;52.690;6.812;2022-07-05T03:10:19;12.30;99.90
52919;DHT22;38793;52.690;6.812;2022-07-05T03:12:45;12.30;99.90
52919;DHT22;38793;52.690;6.812;2022-07-05T03:15:10;12.30;99.90
52919;DHT22;38793;52.690;6.812;2022-07-05T03:17:36;12.20;99.90
52919;DHT22;38793;52.690;6.812;2022-07-05T03:20:02;12.10;99.90
52919;DHT22;38793;52.690;6.812;2022-07-05T03:22:27;12.10;99.90
52919;DHT22;38793;52.690;6.812;2022-07-05T03:24:53;12.00;99.90
52919;DHT22;38793;52.690;6.812;2022-07-05T03:27:18;12.10;99.90
52919;DHT22;38793;52.690;6.812;2022-07-05T03:29:44;12.10;99.90
52919;DHT22;38793;52.690;6.812;2022-07-05T03:32:10;12.10;99.90
52919;DHT22;38793;52.690;6.812;2022-07-05T03:34:35;12.20;99.90
52919;DHT22;38793;52.690;6.812;2022-07-05T03:37:01;12.20;99.90
52919;DHT22;38793;52.690;6.812;2022-07-05T03:39:26;12.10;99.90
52919;DHT22;38793;52.690;6.812;2022-07-05T03:41:53;12.10;99.90
52919;DHT22;38793;52.690;6.812;2022-07-05T03:44:18;12.10;99.90
52919;DHT22;38793;52.690;6.812;2022-07-05T03:46:44;12.20;99.90
52919;DHT22;38793;52.690;6.812;2022-07-05T03:49:09;12.20;99.90
52919;DHT22;38793;52.690;6.812;2022-07-05T03:51:35;12.20;99.90
52919;DHT22;38793;52.690;6.812;2022-07-05T03:54:01;12.20;99.90
52919;DHT22;38793;52.690;6.812;2022-07-05T03:56:26;12.20;99.90
52919;DHT22;38793;52.690;6.812;2022-07-05T03:58:52;12.30;99.90
52919;DHT22;38793;52.690;6.812;2022-07-05T04:01:18;12.30;99.90
52919;DHT22;38793;52.690;6.812;2022-07-05T04:03:43;12.30;99.90
52919;DHT22;38793;52.690;6.812;2022-07-05T04:06:10;12.30;99.90
52919;DHT22;38793;52.690;6.812;2022-07-05T04:08:35;12.40;99.90
52919;DHT22;38793;52.690;6.812;2022-07-05T04:11:01;12.40;99.90
52919;DHT22;38793;52.690;6.812;2022-07-05T04:13:27;12.50;99.90
52919;DHT22;38793;52.690;6.812;2022-07-05T04:15:52;12.50;99.90
52919;DHT22;38793;52.690;6.812;2022-07-05T04:18:18;12.50;99.90
52919;DHT22;38793;52.690;6.812;2022-07-05T04:20:44;12.60;99.90
52919;DHT22;38793;52.690;6.812;2022-07-05T04:23:10;12.70;99.90
52919;DHT22;38793;52.690;6.812;2022-07-05T04:25:35;12.70;99.90
52919;DHT22;38793;52.690;6.812;2022-07-05T04:28:01;12.70;99.90
52919;DHT22;38793;52.690;6.812;2022-07-05T04:30:27;12.80;99.90
52919;DHT22;38793;52.690;6.812;2022-07-05T04:32:52;12.80;99.90
52919;DHT22;38793;52.690;6.812;2022-07-05T04:35:18;12.90;99.90
52919;DHT22;38793;52.690;6.812;2022-07-05T04:37:44;12.90;99.90
52919;DHT22;38793;52.690;6.812;2022-07-05T04:40:11;12.90;99.90
52919;DHT22;38793;52.690;6.812;2022-07-05T04:42:37;13.00;99.90
52919;DHT22;38793;52.690;6.812;2022-07-05T04:45:04;13.10;99.90
52919;DHT22;38793;52.690;6.812;2022-07-05T04:47:30;13.20;99.90
52919;DHT22;38793;52.690;6.812;2022-07-05T04:49:56;13.20;99.90
52919;DHT22;38793;52.690;6.812;2022-07-05T04:52:23;13.20;99.90
52919;DHT22;38793;52.690;6.812;2022-07-05T04:54:49;13.30;99.90
52919;DHT22;38793;52.690;6.812;2022-07-05T04:57:14;13.40;99.90
52919;DHT22;38793;52.690;6.812;2022-07-05T04:59:40;13.40;99.90
52919;DHT22;38793;52.690;6.812;2022-07-05T05:02:06;13.50;99.90
52919;DHT22;38793;52.690;6.812;2022-07-05T05:04:31;13.50;99.90
52919;DHT22;38793;52.690;6.812;2022-07-05T05:06:57;13.60;99.90
52919;DHT22;38793;52.690;6.812;2022-07-05T05:09:22;13.70;99.90
52919;DHT22;38793;52.690;6.812;2022-07-05T05:11:48;13.80;99.90
52919;DHT22;38793;52.690;6.812;2022-07-05T05:14:13;13.90;99.90
52919;DHT22;38793;52.690;6.812;2022-07-05T05:16:39;14.10;99.90
52919;DHT22;38793;52.690;6.812;2022-07-05T05:19:05;14.20;99.90
52919;DHT22;38793;52.690;6.812;2022-07-05T05:21:30;14.30;99.90
52919;DHT22;38793;52.690;6.812;2022-07-05T05:23:56;14.40;99.90
52919;DHT22;38793;52.690;6.812;2022-07-05T05:26:22;14.50;99.90
52919;DHT22;38793;52.690;6.812;2022-07-05T05:28:47;14.60;99.90
52919;DHT22;38793;52.690;6.812;2022-07-05T05:31:13;14.70;99.90
52919;DHT22;38793;52.690;6.812;2022-07-05T05:33:38;14.70;99.90
52919;DHT22;38793;52.690;6.812;2022-07-05T05:36:05;14.80;99.90
52919;DHT22;38793;52.690;6.812;2022-07-05T05:38:30;14.90;99.90
52919;DHT22;38793;52.690;6.812;2022-07-05T05:40:56;15.00;99.90
52919;DHT22;38793;52.690;6.812;2022-07-05T05:43:21;15.00;99.90
52919;DHT22;38793;52.690;6.812;2022-07-05T05:45:47;15.10;99.90
52919;DHT22;38793;52.690;6.812;2022-07-05T05:48:12;15.10;99.90
52919;DHT22;38793;52.690;6.812;2022-07-05T05:50:38;15.20;99.90
52919;DHT22;38793;52.690;6.812;2022-07-05T05:53:04;15.30;99.90
52919;DHT22;38793;52.690;6.812;2022-07-05T05:55:30;15.40;99.90
52919;DHT22;38793;52.690;6.812;2022-07-05T05:57:56;15.50;99.90
52919;DHT22;38793;52.690;6.812;2022-07-05T06:00:27;15.60;99.90
52919;DHT22;38793;52.690;6.812;2022-07-05T06:02:53;15.60;99.90
52919;DHT22;38793;52.690;6.812;2022-07-05T06:05:18;15.70;99.90
52919;DHT22;38793;52.690;6.812;2022-07-05T06:07:55;15.90;99.90
52919;DHT22;38793;52.690;6.812;2022-07-05T06:10:26;15.90;99.90
52919;DHT22;38793;52.690;6.812;2022-07-05T06:12:53;16.00;99.90
52919;DHT22;38793;52.690;6.812;2022-07-05T06:15:19;16.10;99.90
52919;DHT22;38793;52.690;6.812;2022-07-05T06:17:45;16.20;99.90
52919;DHT22;38793;52.690;6.812;2022-07-05T06:20:13;16.30;99.90
52919;DHT22;38793;52.690;6.812;2022-07-05T06:22:39;16.30;99.90
52919;DHT22;38793;52.690;6.812;2022-07-05T06:25:05;16.40;99.90
52919;DHT22;38793;52.690;6.812;2022-07-05T06:27:32;16.40;99.90
52919;DHT22;38793;52.690;6.812;2022-07-05T06:30:02;16.50;99.90
52919;DHT22;38793;52.690;6.812;2022-07-05T06:32:28;16.50;99.90
52919;DHT22;38793;52.690;6.812;2022-07-05T06:34:53;16.50;99.90
52919;DHT22;38793;52.690;6.812;2022-07-05T06:37:19;16.60;99.90
52919;DHT22;38793;52.690;6.812;2022-07-05T06:39:45;16.70;99.90
52919;DHT22;38793;52.690;6.812;2022-07-05T06:42:10;16.70;99.90
52919;DHT22;38793;52.690;6.812;2022-07-05T06:44:36;16.80;99.90
52919;DHT22;38793;52.690;6.812;2022-07-05T06:47:02;16.90;99.90
52919;DHT22;38793;52.690;6.812;2022-07-05T06:49:28;17.00;99.90
52919;DHT22;38793;52.690;6.812;2022-07-05T06:51:53;17.00;99.90
52919;DHT22;38793;52.690;6.812;2022-07-05T06:54:19;17.10;99.90
52919;DHT22;38793;52.690;6.812;2022-07-05T06:56:44;17.10;99.90
52919;DHT22;38793;52.690;6.812;2022-07-05T06:59:10;17.20;99.90
52919;DHT22;38793;52.690;6.812;2022-07-05T07:01:35;17.20;99.90
52919;DHT22;38793;52.690;6.812;2022-07-05T07:04:01;17.20;99.90
52919;DHT22;38793;52.690;6.812;2022-07-05T07:06:26;17.30;99.90
52919;DHT22;38793;52.690;6.812;2022-07-05T07:08:52;17.30;99.90
52919;DHT22;38793;52.690;6.812;2022-07-05T07:11:36;17.40;99.90
52919;DHT22;38793;52.690;6.812;2022-07-05T07:14:02;17.40;99.90
52919;DHT22;38793;52.690;6.812;2022-07-05T07:16:27;17.50;99.90
52919;DHT22;38793;52.690;6.812;2022-07-05T07:18:53;17.50;99.90
52919;DHT22;38793;52.690;6.812;2022-07-05T07:21:19;17.60;99.90
52919;DHT22;38793;52.690;6.812;2022-07-05T07:23:44;17.60;99.90
52919;DHT22;38793;52.690;6.812;2022-07-05T07:26:10;17.70;99.90
52919;DHT22;38793;52.690;6.812;2022-07-05T07:28:35;17.70;99.90
52919;DHT22;38793;52.690;6.812;2022-07-05T07:31:01;17.80;99.90
52919;DHT22;38793;52.690;6.812;2022-07-05T07:33:26;17.80;99.90
52919;DHT22;38793;52.690;6.812;2022-07-05T07:35:52;17.90;99.90
52919;DHT22;38793;52.690;6.812;2022-07-05T07:38:18;17.90;99.90
52919;DHT22;38793;52.690;6.812;2022-07-05T07:40:44;18.00;99.90
52919;DHT22;38793;52.690;6.812;2022-07-05T07:43:09;18.00;99.90
52919;DHT22;38793;52.690;6.812;2022-07-05T07:45:35;18.10;99.90
52919;DHT22;38793;52.690;6.812;2022-07-05T07:48:00;18.20;99.90
52919;DHT22;38793;52.690;6.812;2022-07-05T07:50:26;18.20;99.90
52919;DHT22;38793;52.690;6.812;2022-07-05T07:52:52;18.30;99.90
52919;DHT22;38793;52.690;6.812;2022-07-05T07:55:17;18.30;99.90
52919;DHT22;38793;52.690;6.812;2022-07-05T07:57:43;18.40;99.90
52919;DHT22;38793;52.690;6.812;2022-07-05T08:00:08;18.50;99.90
52919;DHT22;38793;52.690;6.812;2022-07-05T08:02:34;18.60;99.90
52919;DHT22;38793;52.690;6.812;2022-07-05T08:05:00;18.60;99.90
52919;DHT22;38793;52.690;6.812;2022-07-05T08:07:25;18.60;99.90
52919;DHT22;38793;52.690;6.812;2022-07-05T08:09:51;18.70;99.90
52919;DHT22;38793;52.690;6.812;2022-07-05T08:12:18;18.70;99.90
52919;DHT22;38793;52.690;6.812;2022-07-05T08:14:45;18.80;99.90
52919;DHT22;38793;52.690;6.812;2022-07-05T08:17:12;18.80;99.90
52919;DHT22;38793;52.690;6.812;2022-07-05T08:19:38;18.90;99.90
52919;DHT22;38793;52.690;6.812;2022-07-05T08:22:23;19.00;99.90
52919;DHT22;38793;52.690;6.812;2022-07-05T08:24:49;19.10;99.90
52919;DHT22;38793;52.690;6.812;2022-07-05T08:27:15;19.10;99.90
52919;DHT22;38793;52.690;6.812;2022-07-05T08:29:41;19.10;99.90
52919;DHT22;38793;52.690;6.812;2022-07-05T08:32:08;19.10;99.90
52919;DHT22;38793;52.690;6.812;2022-07-05T08:34:34;19.20;99.90
52919;DHT22;38793;52.690;6.812;2022-07-05T08:37:00;19.30;99.90
52919;DHT22;38793;52.690;6.812;2022-07-05T08:39:26;19.30;99.90
52919;DHT22;38793;52.690;6.812;2022-07-05T08:41:52;19.30;99.90
52919;DHT22;38793;52.690;6.812;2022-07-05T08:44:22;19.20;99.90
52919;DHT22;38793;52.690;6.812;2022-07-05T08:46:49;19.10;99.90
52919;DHT22;38793;52.690;6.812;2022-07-05T08:49:21;19.10;99.90
52919;DHT22;38793;52.690;6.812;2022-07-05T08:51:48;19.00;99.90
52919;DHT22;38793;52.690;6.812;2022-07-05T08:54:14;19.10;99.90
52919;DHT22;38793;52.690;6.812;2022-07-05T08:56:41;19.10;99.90
52919;DHT22;38793;52.690;6.812;2022-07-05T08:59:07;19.20;99.90
52919;DHT22;38793;52.690;6.812;2022-07-05T09:01:33;19.30;99.90
52919;DHT22;38793;52.690;6.812;2022-07-05T09:04:07;19.20;99.90
52919;DHT22;38793;52.690;6.812;2022-07-05T09:06:38;19.20;99.70
52919;DHT22;38793;52.690;6.812;2022-07-05T09:09:05;19.20;99.90
52919;DHT22;38793;52.690;6.812;2022-07-05T09:11:39;19.30;99.90
52919;DHT22;38793;52.690;6.812;2022-07-05T09:16:43;19.40;99.90
52919;DHT22;38793;52.690;6.812;2022-07-05T09:19:09;19.30;99.90
52919;DHT22;38793;52.690;6.812;2022-07-05T09:21:35;19.30;99.90
52919;DHT22;38793;52.690;6.812;2022-07-05T09:24:07;19.30;99.90
52919;DHT22;38793;52.690;6.812;2022-07-05T09:26:34;19.30;99.90
52919;DHT22;38793;52.690;6.812;2022-07-05T09:29:02;19.30;99.70
52919;DHT22;38793;52.690;6.812;2022-07-05T09:31:34;19.30;99.40
52919;DHT22;38793;52.690;6.812;2022-07-05T09:34:05;19.40;99.50
52919;DHT22;38793;52.690;6.812;2022-07-05T09:39:15;19.30;99.70
52919;DHT22;38793;52.690;6.812;2022-07-05T09:41:41;19.30;99.90
52919;DHT22;38793;52.690;6.812;2022-07-05T09:44:44;19.30;99.90
52919;DHT22;38793;52.690;6.812;2022-07-05T09:50:39;19.60;99.90
52919;DHT22;38793;52.690;6.812;2022-07-05T09:56:00;19.60;99.70
52919;DHT22;38793;52.690;6.812;2022-07-05T09:58:27;19.50;99.20
52919;DHT22;38793;52.690;6.812;2022-07-05T10:01:28;19.50;99.80
52919;DHT22;38793;52.690;6.812;2022-07-05T10:04:32;19.40;99.50
52919;DHT22;38793;52.690;6.812;2022-07-05T10:17:13;19.50;99.70
52919;DHT22;38793;52.690;6.812;2022-07-05T10:19:41;19.70;99.20
52919;DHT22;38793;52.690;6.812;2022-07-05T10:22:06;19.80;98.60
52919;DHT22;38793;52.690;6.812;2022-07-05T10:24:34;19.80;98.70
52919;DHT22;38793;52.690;6.812;2022-07-05T10:27:02;19.80;98.60
52919;DHT22;38793;52.690;6.812;2022-07-05T10:29:30;19.70;98.40
52919;DHT22;38793;52.690;6.812;2022-07-05T10:31:56;19.60;98.30
52919;DHT22;38793;52.690;6.812;2022-07-05T10:34:22;19.60;98.70
52919;DHT22;38793;52.690;6.812;2022-07-05T10:36:48;19.60;99.10
52919;DHT22;38793;52.690;6.812;2022-07-05T10:39:14;19.70;98.40
52919;DHT22;38793;52.690;6.812;2022-07-05T10:41:40;19.80;98.70
52919;DHT22;38793;52.690;6.812;2022-07-05T10:44:06;19.80;98.20
52919;DHT22;38793;52.690;6.812;2022-07-05T10:46:33;19.90;98.50
52919;DHT22;38793;52.690;6.812;2022-07-05T10:49:19;19.90;97.90
52919;DHT22;38793;52.690;6.812;2022-07-05T10:51:45;20.10;98.30
52919;DHT22;38793;52.690;6.812;2022-07-05T10:54:12;20.20;98.50
52919;DHT22;38793;52.690;6.812;2022-07-05T10:56:37;20.40;98.20
52919;DHT22;38793;52.690;6.812;2022-07-05T10:59:07;20.60;97.60
52919;DHT22;38793;52.690;6.812;2022-07-05T11:01:36;20.60;97.50
52919;DHT22;38793;52.690;6.812;2022-07-05T11:11:37;20.50;95.80
52919;DHT22;38793;52.690;6.812;2022-07-05T11:14:35;20.40;95.70
52919;DHT22;38793;52.690;6.812;2022-07-05T11:19:35;20.30;96.70
52919;DHT22;38793;52.690;6.812;2022-07-05T11:22:20;20.30;96.00
52919;DHT22;38793;52.690;6.812;2022-07-05T11:24:46;20.30;96.50
52919;DHT22;38793;52.690;6.812;2022-07-05T11:27:12;20.30;96.20
52919;DHT22;38793;52.690;6.812;2022-07-05T11:29:55;20.40;97.10
52919;DHT22;38793;52.690;6.812;2022-07-05T11:35:17;20.60;96.70
52919;DHT22;38793;52.690;6.812;2022-07-05T11:38:03;20.60;97.00
52919;DHT22;38793;52.690;6.812;2022-07-05T11:40:31;20.70;96.90
52919;DHT22;38793;52.690;6.812;2022-07-05T11:42:57;20.80;96.90
52919;DHT22;38793;52.690;6.812;2022-07-05T11:45:23;20.90;96.80
52919;DHT22;38793;52.690;6.812;2022-07-05T11:47:50;20.90;96.60
52919;DHT22;38793;52.690;6.812;2022-07-05T11:50:15;21.00;97.40
52919;DHT22;38793;52.690;6.812;2022-07-05T11:52:41;21.10;97.60
52919;DHT22;38793;52.690;6.812;2022-07-05T11:55:09;21.20;96.00
52919;DHT22;38793;52.690;6.812;2022-07-05T11:57:35;21.20;96.10
52919;DHT22;38793;52.690;6.812;2022-07-05T12:00:04;21.10;96.50
52919;DHT22;38793;52.690;6.812;2022-07-05T12:02:30;21.10;96.80
52919;DHT22;38793;52.690;6.812;2022-07-05T12:04:56;21.00;96.60
52919;DHT22;38793;52.690;6.812;2022-07-05T12:07:29;21.00;97.00
52919;DHT22;38793;52.690;6.812;2022-07-05T12:09:56;20.90;96.40
52919;DHT22;38793;52.690;6.812;2022-07-05T12:12:40;20.90;96.50
52919;DHT22;38793;52.690;6.812;2022-07-05T12:17:38;20.60;96.40
52919;DHT22;38793;52.690;6.812;2022-07-05T12:20:05;20.50;96.80
52919;DHT22;38793;52.690;6.812;2022-07-05T12:22:33;20.30;96.10
52919;DHT22;38793;52.690;6.812;2022-07-05T12:25:00;20.30;96.00
52919;DHT22;38793;52.690;6.812;2022-07-05T12:27:27;20.20;96.20
52919;DHT22;38793;52.690;6.812;2022-07-05T12:29:54;20.30;96.10
52919;DHT22;38793;52.690;6.812;2022-07-05T12:32:20;20.30;96.50
52919;DHT22;38793;52.690;6.812;2022-07-05T12:34:45;20.40;96.90
52919;DHT22;38793;52.690;6.812;2022-07-05T12:37:20;20.50;96.40
52919;DHT22;38793;52.690;6.812;2022-07-05T12:39:47;20.60;96.50
52919;DHT22;38793;52.690;6.812;2022-07-05T12:42:33;20.70;96.10
52919;DHT22;38793;52.690;6.812;2022-07-05T12:45:09;20.70;95.60
52919;DHT22;38793;52.690;6.812;2022-07-05T12:47:55;20.80;95.50
52919;DHT22;38793;52.690;6.812;2022-07-05T12:50:25;20.90;94.60
52919;DHT22;38793;52.690;6.812;2022-07-05T12:55:20;20.90;95.00
52919;DHT22;38793;52.690;6.812;2022-07-05T12:58:05;20.90;95.50
52919;DHT22;38793;52.690;6.812;2022-07-05T13:00:30;20.90;95.40
52919;DHT22;38793;52.690;6.812;2022-07-05T13:02:56;20.90;95.70
52919;DHT22;38793;52.690;6.812;2022-07-05T13:05:22;20.90;94.80
52919;DHT22;38793;52.690;6.812;2022-07-05T13:07:48;20.90;94.40
52919;DHT22;38793;52.690;6.812;2022-07-05T13:10:14;20.80;94.50
52919;DHT22;38793;52.690;6.812;2022-07-05T13:12:40;20.80;94.30
52919;DHT22;38793;52.690;6.812;2022-07-05T13:15:06;20.80;94.30
52919;DHT22;38793;52.690;6.812;2022-07-05T13:17:31;20.70;93.20
52919;DHT22;38793;52.690;6.812;2022-07-05T13:19:57;20.70;93.30
52919;DHT22;38793;52.690;6.812;2022-07-05T13:22:25;20.70;93.20
52919;DHT22;38793;52.690;6.812;2022-07-05T13:24:50;20.70;93.60
52919;DHT22;38793;52.690;6.812;2022-07-05T13:27:16;20.70;93.00
52919;DHT22;38793;52.690;6.812;2022-07-05T13:29:41;20.80;93.30
52919;DHT22;38793;52.690;6.812;2022-07-05T13:32:07;20.80;92.90
52919;DHT22;38793;52.690;6.812;2022-07-05T13:34:33;20.90;93.40
52919;DHT22;38793;52.690;6.812;2022-07-05T13:36:59;21.00;93.10
52919;DHT22;38793;52.690;6.812;2022-07-05T13:39:26;21.00;92.50
52919;DHT22;38793;52.690;6.812;2022-07-05T13:41:53;21.00;93.50
52919;DHT22;38793;52.690;6.812;2022-07-05T13:44:19;21.00;92.90
52919;DHT22;38793;52.690;6.812;2022-07-05T13:46:44;21.10;93.30
52919;DHT22;38793;52.690;6.812;2022-07-05T13:49:10;21.10;94.00
52919;DHT22;38793;52.690;6.812;2022-07-05T13:51:36;21.10;93.60
52919;DHT22;38793;52.690;6.812;2022-07-05T13:54:01;21.10;92.50
52919;DHT22;38793;52.690;6.812;2022-07-05T13:56:27;21.10;92.90
52919;DHT22;38793;52.690;6.812;2022-07-05T13:58:54;21.20;92.70
52919;DHT22;38793;52.690;6.812;2022-07-05T14:01:21;21.20;92.40
52919;DHT22;38793;52.690;6.812;2022-07-05T14:03:52;21.30;93.00
52919;DHT22;38793;52.690;6.812;2022-07-05T14:06:18;21.40;93.00
52919;DHT22;38793;52.690;6.812;2022-07-05T14:08:43;21.50;92.80
52919;DHT22;38793;52.690;6.812;2022-07-05T14:11:09;21.40;92.30
52919;DHT22;38793;52.690;6.812;2022-07-05T14:13:35;21.40;92.60
52919;DHT22;38793;52.690;6.812;2022-07-05T14:16:00;21.40;92.10
52919;DHT22;38793;52.690;6.812;2022-07-05T14:18:26;21.40;92.40
52919;DHT22;38793;52.690;6.812;2022-07-05T14:20:52;21.30;92.30
52919;DHT22;38793;52.690;6.812;2022-07-05T14:23:17;21.30;92.40
52919;DHT22;38793;52.690;6.812;2022-07-05T14:25:43;21.30;92.20
52919;DHT22;38793;52.690;6.812;2022-07-05T14:28:09;21.40;92.60
52919;DHT22;38793;52.690;6.812;2022-07-05T14:30:36;21.40;92.00
52919;DHT22;38793;52.690;6.812;2022-07-05T14:33:02;21.50;92.40
52919;DHT22;38793;52.690;6.812;2022-07-05T14:35:28;21.40;91.80
52919;DHT22;38793;52.690;6.812;2022-07-05T14:37:53;21.40;91.70
52919;DHT22;38793;52.690;6.812;2022-07-05T14:40:19;21.30;91.90
52919;DHT22;38793;52.690;6.812;2022-07-05T14:42:44;21.20;91.50
52919;DHT22;38793;52.690;6.812;2022-07-05T14:45:10;21.20;91.70
52919;DHT22;38793;52.690;6.812;2022-07-05T14:47:36;21.10;91.30
52919;DHT22;38793;52.690;6.812;2022-07-05T14:50:01;21.00;91.80
52919;DHT22;38793;52.690;6.812;2022-07-05T14:52:27;21.00;91.70
52919;DHT22;38793;52.690;6.812;2022-07-05T14:54:54;20.90;91.90
52919;DHT22;38793;52.690;6.812;2022-07-05T14:57:20;20.90;91.80
52919;DHT22;38793;52.690;6.812;2022-07-05T14:59:46;20.90;91.50
52919;DHT22;38793;52.690;6.812;2022-07-05T15:02:11;20.90;92.00
52919;DHT22;38793;52.690;6.812;2022-07-05T15:04:37;21.00;91.90
52919;DHT22;38793;52.690;6.812;2022-07-05T15:07:03;21.10;91.90
52919;DHT22;38793;52.690;6.812;2022-07-05T15:09:29;21.20;91.80
52919;DHT22;38793;52.690;6.812;2022-07-05T15:11:55;21.20;91.60
52919;DHT22;38793;52.690;6.812;2022-07-05T15:14:20;21.30;91.90
52919;DHT22;38793;52.690;6.812;2022-07-05T15:16:46;21.30;91.60
52919;DHT22;38793;52.690;6.812;2022-07-05T15:19:11;21.30;91.90
52919;DHT22;38793;52.690;6.812;2022-07-05T15:21:37;21.30;91.50
52919;DHT22;38793;52.690;6.812;2022-07-05T15:24:02;21.20;91.20
52919;DHT22;38793;52.690;6.812;2022-07-05T15:26:28;21.20;91.90
52919;DHT22;38793;52.690;6.812;2022-07-05T15:29:01;21.10;91.00
52919;DHT22;38793;52.690;6.812;2022-07-05T15:31:30;21.00;91.10
52919;DHT22;38793;52.690;6.812;2022-07-05T15:33:57;21.00;91.00
52919;DHT22;38793;52.690;6.812;2022-07-05T15:36:22;21.00;91.20
52919;DHT22;38793;52.690;6.812;2022-07-05T15:38:48;21.00;91.10
52919;DHT22;38793;52.690;6.812;2022-07-05T15:41:13;21.00;90.50
52919;DHT22;38793;52.690;6.812;2022-07-05T15:43:39;21.00;90.90
52919;DHT22;38793;52.690;6.812;2022-07-05T15:46:05;21.10;90.70
52919;DHT22;38793;52.690;6.812;2022-07-05T15:48:30;21.10;90.60
52919;DHT22;38793;52.690;6.812;2022-07-05T15:50:56;21.10;91.00
52919;DHT22;38793;52.690;6.812;2022-07-05T15:53:23;21.10;90.80
52919;DHT22;38793;52.690;6.812;2022-07-05T15:55:49;21.10;91.30
52919;DHT22;38793;52.690;6.812;2022-07-05T15:58:15;21.10;91.40
52919;DHT22;38793;52.690;6.812;2022-07-05T16:00:40;21.00;90.80
52919;DHT22;38793;52.690;6.812;2022-07-05T16:03:06;21.00;91.10
52919;DHT22;38793;52.690;6.812;2022-07-05T16:05:32;21.00;91.50
52919;DHT22;38793;52.690;6.812;2022-07-05T16:07:57;20.90;91.00
52919;DHT22;38793;52.690;6.812;2022-07-05T16:10:23;20.90;91.70